sensor_id;sensor_type;location;lat;lon;timestamp;temperature;humidity
8463;DHT22;4268;52.506;13.462;2023-04-25T00:01:04;9.70;99.90
8463;DHT22;4268;52.506;13.462;2023-04-25T00:03:31;9.70;99.90
8463;DHT22;4268;52.506;13.462;2023-04-25T00:05:57;9.70;99.90
8463;DHT22;4268;52.506;13.462;2023-04-25T00:08:24;9.60;99.90
8463;DHT22;4268;52.506;13.462;2023-04-25T00:10:50;9.60;99.90
8463;DHT22;4268;52.506;13.462;2023-04-25T00:13:15;9.70;99.90
8463;DHT22;4268;52.506;13.462;2023-04-25T00:15:42;9.60;99.90
8463;DHT22;4268;52.506;13.462;2023-04-25T00:18:08;9.60;99.90
8463;DHT22;4268;52.506;13.462;2023-04-25T00:20:35;9.60;99.90
8463;DHT22;4268;52.506;13.462;2023-04-25T00:23:00;9.70;99.90
8463;DHT22;4268;52.506;13.462;2023-04-25T00:25:26;9.70;99.90
8463;DHT22;4268;52.506;13.462;2023-04-25T00:27:52;9.70;99.90
8463;DHT22;4268;52.506;13.462;2023-04-25T00:30:17;9.60;99.90
8463;DHT22;4268;52.506;13.462;2023-04-25T00:32:43;9.60;99.90
8463;DHT22;4268;52.506;13.462;2023-04-25T00:35:09;9.60;99.90
8463;DHT22;4268;52.506;13.462;2023-04-25T00:37:35;9.60;99.90
8463;DHT22;4268;52.506;13.462;2023-04-25T00:40:01;9.60;99.90
8463;DHT22;4268;52.506;13.462;2023-04-25T00:42:27;9.60;99.90
8463;DHT22;4268;52.506;13.462;2023-04-25T00:44:53;9.70;99.90
8463;DHT22;4268;52.506;13.462;2023-04-25T00:47:19;9.60;99.90
8463;DHT22;4268;52.506;13.462;2023-04-25T00:49:45;9.70;99.90
8463;DHT22;4268;52.506;13.462;2023-04-25T00:52:12;9.60;99.90
8463;DHT22;4268;52.506;13.462;2023-04-25T00:54:38;9.60;99.90
8463;DHT22;4268;52.506;13.462;2023-04-25T00:57:04;9.60;99.90
8463;DHT22;4268;52.506;13.462;2023-04-25T00:59:30;9.60;99.90
8463;DHT22;4268;52.506;13.462;2023-04-25T01:01:56;9.60;99.90
8463;DHT22;4268;52.506;13.462;2023-04-25T01:04:21;9.60;99.90
8463;DHT22;4268;52.506;13.462;2023-04-25T01:06:47;9.60;99.90
8463;DHT22;4268;52.506;13.462;2023-04-25T01:09:13;9.60;99.90
8463;DHT22;4268;52.506;13.462;2023-04-25T01:11:40;9.60;99.90
8463;DHT22;4268;52.506;13.462;2023-04-25T01:14:05;9.60;99.90
8463;DHT22;4268;52.506;13.462;2023-04-25T01:16:32;9.60;99.90
8463;DHT22;4268;52.506;13.462;2023-04-25T01:18:58;9.60;99.90
8463;DHT22;4268;52.506;13.462;2023-04-25T01:21:24;9.50;99.90
8463;DHT22;4268;52.506;13.462;2023-04-25T01:23:53;9.60;99.90
8463;DHT22;4268;52.506;13.462;2023-04-25T01:26:19;9.50;99.90
8463;DHT22;4268;52.506;13.462;2023-04-25T01:28:47;9.60;99.90
8463;DHT22;4268;52.506;13.462;2023-04-25T01:31:14;9.60;99.90
8463;DHT22;4268;52.506;13.462;2023-04-25T01:33:40;9.50;99.90
8463;DHT22;4268;52.506;13.462;2023-04-25T01:36:06;9.60;99.90
8463;DHT22;4268;52.506;13.462;2023-04-25T01:38:32;9.60;99.90
8463;DHT22;4268;52.506;13.462;2023-04-25T01:40:58;9.60;99.90
8463;DHT22;4268;52.506;13.462;2023-04-25T01:43:24;9.60;99.90
8463;DHT22;4268;52.506;13.462;2023-04-25T01:45:50;9.60;99.90
8463;DHT22;4268;52.506;13.462;2023-04-25T01:48:15;9.60;99.90
8463;DHT22;4268;52.506;13.462;2023-04-25T01:50:41;9.60;99.90
8463;DHT22;4268;52.506;13.462;2023-04-25T01:53:09;9.60;99.90
8463;DHT22;4268;52.506;13.462;2023-04-25T01:55:35;9.60;99.90
8463;DHT22;4268;52.506;13.462;2023-04-25T01:58:02;9.60;99.90
8463;DHT22;4268;52.506;13.462;2023-04-25T02:00:28;9.60;99.90
8463;DHT22;4268;52.506;13.462;2023-04-25T02:02:53;9.60;99.90
8463;DHT22;4268;52.506;13.462;2023-04-25T02:05:22;9.60;99.90
8463;DHT22;4268;52.506;13.462;2023-04-25T02:07:48;9.60;99.90
8463;DHT22;4268;52.506;13.462;2023-04-25T02:10:14;9.60;99.90
8463;DHT22;4268;52.506;13.462;2023-04-25T02:12:40;9.50;99.90
8463;DHT22;4268;52.506;13.462;2023-04-25T02:15:06;9.60;99.90
8463;DHT22;4268;52.506;13.462;2023-04-25T02:17:31;9.60;99.90
8463;DHT22;4268;52.506;13.462;2023-04-25T02:19:57;9.60;99.90
8463;DHT22;4268;52.506;13.462;2023-04-25T02:22:23;9.60;99.90
8463;DHT22;4268;52.506;13.462;2023-04-25T02:24:51;9.20;99.90
8463;DHT22;4268;52.506;13.462;2023-04-25T02:27:16;8.80;99.90
8463;DHT22;4268;52.506;13.462;2023-04-25T02:29:42;9.60;99.90
8463;DHT22;4268;52.506;13.462;2023-04-25T02:32:07;9.10;99.90
8463;DHT22;4268;52.506;13.462;2023-04-25T02:34:33;8.90;99.90
8463;DHT22;4268;52.506;13.462;2023-04-25T02:36:59;10.60;99.90
8463;DHT22;4268;52.506;13.462;2023-04-25T02:39:24;8.90;99.90
8463;DHT22;4268;52.506;13.462;2023-04-25T02:41:52;9.50;99.90
8463;DHT22;4268;52.506;13.462;2023-04-25T02:44:18;9.60;99.90
8463;DHT22;4268;52.506;13.462;2023-04-25T02:46:43;9.30;99.90
8463;DHT22;4268;52.506;13.462;2023-04-25T02:49:09;9.50;99.90
8463;DHT22;4268;52.506;13.462;2023-04-25T02:51:34;9.60;99.90
8463;DHT22;4268;52.506;13.462;2023-04-25T02:54:00;9.60;99.90
8463;DHT22;4268;52.506;13.462;2023-04-25T02:56:25;9.50;99.90
8463;DHT22;4268;52.506;13.462;2023-04-25T02:58:52;9.50;99.90
8463;DHT22;4268;52.506;13.462;2023-04-25T03:01:18;8.90;99.90
8463;DHT22;4268;52.506;13.462;2023-04-25T03:03:43;9.30;99.90
8463;DHT22;4268;52.506;13.462;2023-04-25T03:06:09;9.70;99.90
8463;DHT22;4268;52.506;13.462;2023-04-25T03:08:34;8.00;99.90
8463;DHT22;4268;52.506;13.462;2023-04-25T03:11:00;9.50;99.90
8463;DHT22;4268;52.506;13.462;2023-04-25T03:13:26;9.40;99.90
8463;DHT22;4268;52.506;13.462;2023-04-25T03:15:52;9.50;99.90
8463;DHT22;4268;52.506;13.462;2023-04-25T03:18:18;9.60;99.90
8463;DHT22;4268;52.506;13.462;2023-04-25T03:20:43;9.50;99.90
8463;DHT22;4268;52.506;13.462;2023-04-25T03:23:09;9.50;99.90
8463;DHT22;4268;52.506;13.462;2023-04-25T03:25:35;9.50;99.90
8463;DHT22;4268;52.506;13.462;2023-04-25T03:28:00;9.50;99.90
8463;DHT22;4268;52.506;13.462;2023-04-25T03:30:26;10.70;99.90
8463;DHT22;4268;52.506;13.462;2023-04-25T03:32:51;9.60;99.90
8463;DHT22;4268;52.506;13.462;2023-04-25T03:35:17;9.50;99.90
8463;DHT22;4268;52.506;13.462;2023-04-25T03:37:42;9.50;99.90
8463;DHT22;4268;52.506;13.462;2023-04-25T03:40:11;9.50;99.90
8463;DHT22;4268;52.506;13.462;2023-04-25T03:42:36;9.50;99.90
8463;DHT22;4268;52.506;13.462;2023-04-25T03:45:02;9.50;99.90
8463;DHT22;4268;52.506;13.462;2023-04-25T03:47:28;9.50;99.90
8463;DHT22;4268;52.506;13.462;2023-04-25T03:49:53;9.50;99.90
8463;DHT22;4268;52.506;13.462;2023-04-25T03:52:19;9.60;99.90
8463;DHT22;4268;52.506;13.462;2023-04-25T03:54:44;9.50;99.90
8463;DHT22;4268;52.506;13.462;2023-04-25T03:57:10;9.50;99.90
8463;DHT22;4268;52.506;13.462;2023-04-25T03:59:35;9.80;99.90
8463;DHT22;4268;52.506;13.462;2023-04-25T04:02:01;9.50;99.90
8463;DHT22;4268;52.506;13.462;2023-04-25T04:04:26;9.50;99.90
8463;DHT22;4268;52.506;13.462;2023-04-25T04:06:52;9.50;99.90
8463;DHT22;4268;52.506;13.462;2023-04-25T04:09:18;9.50;99.90
8463;DHT22;4268;52.506;13.462;2023-04-25T04:11:44;9.40;99.90
8463;DHT22;4268;52.506;13.462;2023-04-25T04:14:10;9.50;99.90
8463;DHT22;4268;52.506;13.462;2023-04-25T04:16:35;10.00;99.90
8463;DHT22;4268;52.506;13.462;2023-04-25T04:19:02;9.50;99.90
8463;DHT22;4268;52.506;13.462;2023-04-25T04:21:28;9.60;99.90
8463;DHT22;4268;52.506;13.462;2023-04-25T04:23:54;9.50;99.90
8463;DHT22;4268;52.506;13.462;2023-04-25T04:26:20;9.50;99.90
8463;DHT22;4268;52.506;13.462;2023-04-25T04:28:49;9.30;99.90
8463;DHT22;4268;52.506;13.462;2023-04-25T04:31:16;9.50;99.90
8463;DHT22;4268;52.506;13.462;2023-04-25T04:33:43;9.90;99.90
8463;DHT22;4268;52.506;13.462;2023-04-25T04:36:10;9.50;99.90
8463;DHT22;4268;52.506;13.462;2023-04-25T04:38:35;9.50;99.90
8463;DHT22;4268;52.506;13.462;2023-04-25T04:41:01;9.50;99.90
8463;DHT22;4268;52.506;13.462;2023-04-25T04:43:28;9.50;99.90
8463;DHT22;4268;52.506;13.462;2023-04-25T04:45:55;9.30;99.90
8463;DHT22;4268;52.506;13.462;2023-04-25T04:48:22;9.50;99.90
8463;DHT22;4268;52.506;13.462;2023-04-25T04:50:47;9.60;99.90
8463;DHT22;4268;52.506;13.462;2023-04-25T04:53:13;9.60;99.90
8463;DHT22;4268;52.506;13.462;2023-04-25T04:55:39;9.60;99.90
8463;DHT22;4268;52.506;13.462;2023-04-25T04:58:06;9.90;99.90
8463;DHT22;4268;52.506;13.462;2023-04-25T05:00:32;9.60;99.90
8463;DHT22;4268;52.506;13.462;2023-04-25T05:02:58;11.20;99.90
8463;DHT22;4268;52.506;13.462;2023-04-25T05:05:24;9.70;99.90
8463;DHT22;4268;52.506;13.462;2023-04-25T05:07:50;9.50;99.90
8463;DHT22;4268;52.506;13.462;2023-04-25T05:10:17;9.50;99.90
8463;DHT22;4268;52.506;13.462;2023-04-25T05:12:43;9.50;99.90
8463;DHT22;4268;52.506;13.462;2023-04-25T05:15:09;9.70;99.90
8463;DHT22;4268;52.506;13.462;2023-04-25T05:17:35;9.70;99.90
8463;DHT22;4268;52.506;13.462;2023-04-25T05:20:07;10.00;99.90
8463;DHT22;4268;52.506;13.462;2023-04-25T05:22:49;9.70;99.90
8463;DHT22;4268;52.506;13.462;2023-04-25T05:25:18;10.40;99.90
8463;DHT22;4268;52.506;13.462;2023-04-25T05:27:44;9.80;99.90
8463;DHT22;4268;52.506;13.462;2023-04-25T05:30:10;11.00;99.90
8463;DHT22;4268;52.506;13.462;2023-04-25T05:32:35;9.80;99.90
8463;DHT22;4268;52.506;13.462;2023-04-25T05:35:01;9.60;99.90
8463;DHT22;4268;52.506;13.462;2023-04-25T05:37:28;10.40;99.90
8463;DHT22;4268;52.506;13.462;2023-04-25T05:39:55;9.70;99.90
8463;DHT22;4268;52.506;13.462;2023-04-25T05:42:21;11.10;99.90
8463;DHT22;4268;52.506;13.462;2023-04-25T05:44:46;9.70;99.90
8463;DHT22;4268;52.506;13.462;2023-04-25T05:47:13;9.80;99.90
8463;DHT22;4268;52.506;13.462;2023-04-25T05:49:39;9.80;99.90
8463;DHT22;4268;52.506;13.462;2023-04-25T05:52:04;9.80;99.90
8463;DHT22;4268;52.506;13.462;2023-04-25T05:54:30;9.80;99.90
8463;DHT22;4268;52.506;13.462;2023-04-25T05:56:59;9.80;99.90
8463;DHT22;4268;52.506;13.462;2023-04-25T05:59:24;10.70;99.90
8463;DHT22;4268;52.506;13.462;2023-04-25T06:01:50;9.80;99.90
8463;DHT22;4268;52.506;13.462;2023-04-25T06:04:16;9.80;99.90
8463;DHT22;4268;52.506;13.462;2023-04-25T06:06:42;9.90;99.90
8463;DHT22;4268;52.506;13.462;2023-04-25T06:09:07;9.80;99.90
8463;DHT22;4268;52.506;13.462;2023-04-25T06:11:33;9.80;99.90
8463;DHT22;4268;52.506;13.462;2023-04-25T06:13:58;9.80;99.90
8463;DHT22;4268;52.506;13.462;2023-04-25T06:16:24;9.90;99.90
8463;DHT22;4268;52.506;13.462;2023-04-25T06:18:54;9.80;99.90
8463;DHT22;4268;52.506;13.462;2023-04-25T06:21:19;9.90;99.90
8463;DHT22;4268;52.506;13.462;2023-04-25T06:23:45;9.90;99.90
8463;DHT22;4268;52.506;13.462;2023-04-25T06:26:10;9.90;99.90
8463;DHT22;4268;52.506;13.462;2023-04-25T06:28:36;10.00;99.90
8463;DHT22;4268;52.506;13.462;2023-04-25T06:31:03;10.00;99.90
8463;DHT22;4268;52.506;13.462;2023-04-25T06:33:28;10.00;99.90
8463;DHT22;4268;52.506;13.462;2023-04-25T06:35:54;10.00;99.90
8463;DHT22;4268;52.506;13.462;2023-04-25T06:38:34;10.00;99.90
8463;DHT22;4268;52.506;13.462;2023-04-25T06:41:02;9.80;99.90
8463;DHT22;4268;52.506;13.462;2023-04-25T06:43:28;10.10;99.90
8463;DHT22;4268;52.506;13.462;2023-04-25T06:45:54;10.10;99.90
8463;DHT22;4268;52.506;13.462;2023-04-25T06:48:19;10.10;99.90
8463;DHT22;4268;52.506;13.462;2023-04-25T06:50:45;10.10;99.90
8463;DHT22;4268;52.506;13.462;2023-04-25T06:53:10;10.20;99.90
8463;DHT22;4268;52.506;13.462;2023-04-25T06:55:36;10.20;99.90
8463;DHT22;4268;52.506;13.462;2023-04-25T06:58:02;10.10;99.90
8463;DHT22;4268;52.506;13.462;2023-04-25T07:00:28;10.10;99.90
8463;DHT22;4268;52.506;13.462;2023-04-25T07:02:54;10.20;99.90
8463;DHT22;4268;52.506;13.462;2023-04-25T07:05:19;10.20;99.90
8463;DHT22;4268;52.506;13.462;2023-04-25T07:07:46;10.10;99.90
8463;DHT22;4268;52.506;13.462;2023-04-25T07:10:11;10.10;99.90
8463;DHT22;4268;52.506;13.462;2023-04-25T07:12:37;10.20;99.90
8463;DHT22;4268;52.506;13.462;2023-04-25T07:15:03;10.20;99.90
8463;DHT22;4268;52.506;13.462;2023-04-25T07:17:31;10.10;99.90
8463;DHT22;4268;52.506;13.462;2023-04-25T07:19:57;10.10;99.90
8463;DHT22;4268;52.506;13.462;2023-04-25T07:22:22;10.10;99.90
8463;DHT22;4268;52.506;13.462;2023-04-25T07:24:48;10.10;99.90
8463;DHT22;4268;52.506;13.462;2023-04-25T07:27:14;10.00;99.90
8463;DHT22;4268;52.506;13.462;2023-04-25T07:29:39;10.00;99.90
8463;DHT22;4268;52.506;13.462;2023-04-25T07:32:05;9.90;99.90
8463;DHT22;4268;52.506;13.462;2023-04-25T07:34:30;9.90;99.90
8463;DHT22;4268;52.506;13.462;2023-04-25T07:36:57;9.80;99.90
8463;DHT22;4268;52.506;13.462;2023-04-25T07:39:22;9.90;99.90
8463;DHT22;4268;52.506;13.462;2023-04-25T07:41:48;9.90;99.90
8463;DHT22;4268;52.506;13.462;2023-04-25T07:44:14;10.00;99.90
8463;DHT22;4268;52.506;13.462;2023-04-25T07:46:40;10.10;99.90
8463;DHT22;4268;52.506;13.462;2023-04-25T07:49:05;10.20;99.90
8463;DHT22;4268;52.506;13.462;2023-04-25T07:51:30;10.20;99.90
8463;DHT22;4268;52.506;13.462;2023-04-25T07:53:57;10.30;99.90
8463;DHT22;4268;52.506;13.462;2023-04-25T07:56:23;10.40;99.90
8463;DHT22;4268;52.506;13.462;2023-04-25T07:58:48;10.50;99.90
8463;DHT22;4268;52.506;13.462;2023-04-25T08:01:14;10.50;99.90
8463;DHT22;4268;52.506;13.462;2023-04-25T08:03:39;10.50;99.90
8463;DHT22;4268;52.506;13.462;2023-04-25T08:06:05;10.50;99.90
8463;DHT22;4268;52.506;13.462;2023-04-25T08:08:31;10.40;99.90
8463;DHT22;4268;52.506;13.462;2023-04-25T08:10:56;10.30;99.90
8463;DHT22;4268;52.506;13.462;2023-04-25T08:13:22;10.20;99.90
8463;DHT22;4268;52.506;13.462;2023-04-25T08:15:47;10.30;99.90
8463;DHT22;4268;52.506;13.462;2023-04-25T08:18:13;10.50;99.90
8463;DHT22;4268;52.506;13.462;2023-04-25T08:20:38;10.70;99.90
8463;DHT22;4268;52.506;13.462;2023-04-25T08:23:04;10.90;99.90
8463;DHT22;4268;52.506;13.462;2023-04-25T08:25:29;11.00;99.90
8463;DHT22;4268;52.506;13.462;2023-04-25T08:27:55;11.10;99.70
8463;DHT22;4268;52.506;13.462;2023-04-25T08:30:21;11.00;99.10
8463;DHT22;4268;52.506;13.462;2023-04-25T08:32:46;11.00;98.60
8463;DHT22;4268;52.506;13.462;2023-04-25T08:35:12;11.00;98.80
8463;DHT22;4268;52.506;13.462;2023-04-25T08:37:37;11.10;98.40
8463;DHT22;4268;52.506;13.462;2023-04-25T08:40:04;11.30;98.50
8463;DHT22;4268;52.506;13.462;2023-04-25T08:42:33;11.50;98.00
8463;DHT22;4268;52.506;13.462;2023-04-25T08:45:01;11.60;97.50
8463;DHT22;4268;52.506;13.462;2023-04-25T08:47:27;11.70;97.10
8463;DHT22;4268;52.506;13.462;2023-04-25T08:49:53;11.70;95.80
8463;DHT22;4268;52.506;13.462;2023-04-25T08:52:22;11.70;94.90
8463;DHT22;4268;52.506;13.462;2023-04-25T08:54:49;11.60;94.40
8463;DHT22;4268;52.506;13.462;2023-04-25T08:57:15;11.60;94.30
8463;DHT22;4268;52.506;13.462;2023-04-25T08:59:41;11.50;93.50
8463;DHT22;4268;52.506;13.462;2023-04-25T09:02:11;11.50;93.30
8463;DHT22;4268;52.506;13.462;2023-04-25T09:04:39;11.60;92.90
8463;DHT22;4268;52.506;13.462;2023-04-25T09:07:06;11.80;92.60
8463;DHT22;4268;52.506;13.462;2023-04-25T09:09:31;11.90;92.30
8463;DHT22;4268;52.506;13.462;2023-04-25T09:11:57;11.90;91.50
8463;DHT22;4268;52.506;13.462;2023-04-25T09:14:23;12.00;91.10
8463;DHT22;4268;52.506;13.462;2023-04-25T09:19:23;12.10;90.70
8463;DHT22;4268;52.506;13.462;2023-04-25T09:21:59;12.10;89.60
8463;DHT22;4268;52.506;13.462;2023-04-25T09:24:39;12.20;89.70
8463;DHT22;4268;52.506;13.462;2023-04-25T09:27:07;12.50;87.90
8463;DHT22;4268;52.506;13.462;2023-04-25T09:29:35;12.70;86.40
8463;DHT22;4268;52.506;13.462;2023-04-25T09:32:15;12.70;85.10
8463;DHT22;4268;52.506;13.462;2023-04-25T09:34:51;12.90;83.30
8463;DHT22;4268;52.506;13.462;2023-04-25T09:37:19;12.80;83.30
8463;DHT22;4268;52.506;13.462;2023-04-25T09:39:46;12.80;83.20
8463;DHT22;4268;52.506;13.462;2023-04-25T09:42:16;12.60;82.90
8463;DHT22;4268;52.506;13.462;2023-04-25T09:44:45;12.60;83.00
8463;DHT22;4268;52.506;13.462;2023-04-25T09:47:13;12.70;83.60
8463;DHT22;4268;52.506;13.462;2023-04-25T09:49:40;12.90;83.30
8463;DHT22;4268;52.506;13.462;2023-04-25T09:52:07;12.90;80.90
8463;DHT22;4268;52.506;13.462;2023-04-25T09:54:33;12.80;80.20
8463;DHT22;4268;52.506;13.462;2023-04-25T09:57:11;12.60;77.30
8463;DHT22;4268;52.506;13.462;2023-04-25T09:59:39;12.60;77.80
8463;DHT22;4268;52.506;13.462;2023-04-25T10:02:08;12.50;76.80
8463;DHT22;4268;52.506;13.462;2023-04-25T10:04:35;12.50;76.20
8463;DHT22;4268;52.506;13.462;2023-04-25T10:07:08;12.60;76.60
8463;DHT22;4268;52.506;13.462;2023-04-25T10:09:36;12.60;77.00
8463;DHT22;4268;52.506;13.462;2023-04-25T10:12:03;12.50;75.70
8463;DHT22;4268;52.506;13.462;2023-04-25T10:14:30;12.50;76.30
8463;DHT22;4268;52.506;13.462;2023-04-25T10:16:57;12.50;74.80
8463;DHT22;4268;52.506;13.462;2023-04-25T10:19:24;12.60;75.20
8463;DHT22;4268;52.506;13.462;2023-04-25T10:22:08;12.60;74.90
8463;DHT22;4268;52.506;13.462;2023-04-25T10:24:37;12.60;74.00
8463;DHT22;4268;52.506;13.462;2023-04-25T10:27:04;12.60;74.70
8463;DHT22;4268;52.506;13.462;2023-04-25T10:29:30;12.60;75.00
8463;DHT22;4268;52.506;13.462;2023-04-25T10:31:56;12.60;73.80
8463;DHT22;4268;52.506;13.462;2023-04-25T10:34:41;12.60;73.20
8463;DHT22;4268;52.506;13.462;2023-04-25T10:37:09;12.70;73.60
8463;DHT22;4268;52.506;13.462;2023-04-25T10:39:35;12.90;73.90
8463;DHT22;4268;52.506;13.462;2023-04-25T10:42:02;13.00;73.40
8463;DHT22;4268;52.506;13.462;2023-04-25T10:44:29;12.80;72.80
8463;DHT22;4268;52.506;13.462;2023-04-25T10:46:55;12.90;74.30
8463;DHT22;4268;52.506;13.462;2023-04-25T10:49:36;12.80;73.70
8463;DHT22;4268;52.506;13.462;2023-04-25T10:55:02;12.90;73.80
8463;DHT22;4268;52.506;13.462;2023-04-25T10:57:40;12.90;72.90
8463;DHT22;4268;52.506;13.462;2023-04-25T11:05:33;12.60;72.60
8463;DHT22;4268;52.506;13.462;2023-04-25T11:07:59;12.50;72.90
8463;DHT22;4268;52.506;13.462;2023-04-25T11:10:26;12.60;72.50
8463;DHT22;4268;52.506;13.462;2023-04-25T11:12:52;12.70;73.50
8463;DHT22;4268;52.506;13.462;2023-04-25T11:15:18;12.80;73.50
8463;DHT22;4268;52.506;13.462;2023-04-25T11:17:43;12.90;72.90
8463;DHT22;4268;52.506;13.462;2023-04-25T11:20:11;12.90;72.20
8463;DHT22;4268;52.506;13.462;2023-04-25T11:22:39;12.90;70.90
8463;DHT22;4268;52.506;13.462;2023-04-25T11:25:09;12.70;70.70
8463;DHT22;4268;52.506;13.462;2023-04-25T11:27:38;12.50;71.20
8463;DHT22;4268;52.506;13.462;2023-04-25T11:30:11;12.30;72.00
8463;DHT22;4268;52.506;13.462;2023-04-25T11:32:36;12.00;72.80
8463;DHT22;4268;52.506;13.462;2023-04-25T11:35:04;11.70;73.90
8463;DHT22;4268;52.506;13.462;2023-04-25T11:37:31;11.60;74.40
8463;DHT22;4268;52.506;13.462;2023-04-25T11:39:56;11.60;74.70
8463;DHT22;4268;52.506;13.462;2023-04-25T11:42:22;11.60;72.20
8463;DHT22;4268;52.506;13.462;2023-04-25T11:44:48;11.50;71.40
8463;DHT22;4268;52.506;13.462;2023-04-25T11:47:13;11.60;70.20
8463;DHT22;4268;52.506;13.462;2023-04-25T11:49:38;11.60;69.30
8463;DHT22;4268;52.506;13.462;2023-04-25T11:52:06;11.70;69.10
8463;DHT22;4268;52.506;13.462;2023-04-25T11:54:35;11.80;68.80
8463;DHT22;4268;52.506;13.462;2023-04-25T11:57:01;11.90;68.30
8463;DHT22;4268;52.506;13.462;2023-04-25T11:59:26;12.00;67.60
8463;DHT22;4268;52.506;13.462;2023-04-25T12:01:52;12.10;67.10
8463;DHT22;4268;52.506;13.462;2023-04-25T12:04:24;12.20;67.10
8463;DHT22;4268;52.506;13.462;2023-04-25T12:06:54;12.30;66.90
8463;DHT22;4268;52.506;13.462;2023-04-25T12:09:21;12.30;66.90
8463;DHT22;4268;52.506;13.462;2023-04-25T12:11:54;12.40;67.00
8463;DHT22;4268;52.506;13.462;2023-04-25T12:14:22;12.40;67.30
8463;DHT22;4268;52.506;13.462;2023-04-25T12:16:49;12.40;67.30
8463;DHT22;4268;52.506;13.462;2023-04-25T12:19:17;12.40;67.30
8463;DHT22;4268;52.506;13.462;2023-04-25T12:21:43;12.50;67.70
8463;DHT22;4268;52.506;13.462;2023-04-25T12:24:15;12.50;68.20
8463;DHT22;4268;52.506;13.462;2023-04-25T12:29:20;12.20;69.40
8463;DHT22;4268;52.506;13.462;2023-04-25T12:31:46;12.10;69.70
8463;DHT22;4268;52.506;13.462;2023-04-25T12:34:12;12.20;68.40
8463;DHT22;4268;52.506;13.462;2023-04-25T12:36:37;12.30;67.10
8463;DHT22;4268;52.506;13.462;2023-04-25T12:39:03;12.30;65.00
8463;DHT22;4268;52.506;13.462;2023-04-25T12:41:29;12.60;64.50
8463;DHT22;4268;52.506;13.462;2023-04-25T12:43:55;12.70;64.40
8463;DHT22;4268;52.506;13.462;2023-04-25T12:46:21;12.80;64.50
8463;DHT22;4268;52.506;13.462;2023-04-25T12:48:46;12.90;63.80
8463;DHT22;4268;52.506;13.462;2023-04-25T12:51:12;12.90;64.00
8463;DHT22;4268;52.506;13.462;2023-04-25T12:53:37;13.00;64.20
8463;DHT22;4268;52.506;13.462;2023-04-25T12:56:04;13.00;64.80
8463;DHT22;4268;52.506;13.462;2023-04-25T12:58:30;12.90;64.60
8463;DHT22;4268;52.506;13.462;2023-04-25T13:00:56;12.80;65.30
8463;DHT22;4268;52.506;13.462;2023-04-25T13:03:21;12.80;66.30
8463;DHT22;4268;52.506;13.462;2023-04-25T13:05:47;12.80;66.30
8463;DHT22;4268;52.506;13.462;2023-04-25T13:08:13;12.80;64.20
8463;DHT22;4268;52.506;13.462;2023-04-25T13:10:38;12.70;64.50
8463;DHT22;4268;52.506;13.462;2023-04-25T13:13:04;12.70;64.80
8463;DHT22;4268;52.506;13.462;2023-04-25T13:15:30;12.80;64.30
8463;DHT22;4268;52.506;13.462;2023-04-25T13:17:55;12.80;64.10
8463;DHT22;4268;52.506;13.462;2023-04-25T13:20:21;12.90;64.50
8463;DHT22;4268;52.506;13.462;2023-04-25T13:22:47;13.10;63.20
8463;DHT22;4268;52.506;13.462;2023-04-25T13:25:13;13.10;62.30
8463;DHT22;4268;52.506;13.462;2023-04-25T13:27:38;13.00;61.40
8463;DHT22;4268;52.506;13.462;2023-04-25T13:30:06;13.00;62.90
8463;DHT22;4268;52.506;13.462;2023-04-25T13:32:37;13.10;62.30
8463;DHT22;4268;52.506;13.462;2023-04-25T13:35:05;13.10;62.30
8463;DHT22;4268;52.506;13.462;2023-04-25T13:37:30;12.90;62.90
8463;DHT22;4268;52.506;13.462;2023-04-25T13:39:59;12.80;64.30
8463;DHT22;4268;52.506;13.462;2023-04-25T13:42:25;12.70;64.80
8463;DHT22;4268;52.506;13.462;2023-04-25T13:44:51;12.60;65.60
8463;DHT22;4268;52.506;13.462;2023-04-25T13:47:16;12.50;66.20
8463;DHT22;4268;52.506;13.462;2023-04-25T13:49:42;12.60;66.70
8463;DHT22;4268;52.506;13.462;2023-04-25T13:52:07;12.50;67.10
8463;DHT22;4268;52.506;13.462;2023-04-25T13:54:33;12.40;67.30
8463;DHT22;4268;52.506;13.462;2023-04-25T13:56:59;12.60;67.20
8463;DHT22;4268;52.506;13.462;2023-04-25T13:59:25;12.60;67.00
8463;DHT22;4268;52.506;13.462;2023-04-25T14:01:51;12.70;67.30
8463;DHT22;4268;52.506;13.462;2023-04-25T14:04:16;12.80;66.80
8463;DHT22;4268;52.506;13.462;2023-04-25T14:06:42;12.80;67.20
8463;DHT22;4268;52.506;13.462;2023-04-25T14:09:08;12.70;67.10
8463;DHT22;4268;52.506;13.462;2023-04-25T14:11:38;12.60;67.20
8463;DHT22;4268;52.506;13.462;2023-04-25T14:14:04;12.50;67.50
8463;DHT22;4268;52.506;13.462;2023-04-25T14:16:30;12.40;67.80
8463;DHT22;4268;52.506;13.462;2023-04-25T14:18:57;12.30;68.20
8463;DHT22;4268;52.506;13.462;2023-04-25T14:21:23;12.20;68.60
8463;DHT22;4268;52.506;13.462;2023-04-25T14:23:49;12.00;68.60
8463;DHT22;4268;52.506;13.462;2023-04-25T14:26:14;11.90;68.90
8463;DHT22;4268;52.506;13.462;2023-04-25T14:28:40;12.00;68.40
8463;DHT22;4268;52.506;13.462;2023-04-25T14:31:05;11.90;68.30
8463;DHT22;4268;52.506;13.462;2023-04-25T14:33:31;11.90;68.80
8463;DHT22;4268;52.506;13.462;2023-04-25T14:35:57;11.90;69.00
8463;DHT22;4268;52.506;13.462;2023-04-25T14:38:22;11.90;68.90
8463;DHT22;4268;52.506;13.462;2023-04-25T14:40:50;12.00;68.70
8463;DHT22;4268;52.506;13.462;2023-04-25T14:43:15;12.10;68.60
8463;DHT22;4268;52.506;13.462;2023-04-25T14:45:41;12.10;69.10
8463;DHT22;4268;52.506;13.462;2023-04-25T14:48:06;12.10;68.20
8463;DHT22;4268;52.506;13.462;2023-04-25T14:50:32;12.20;68.50
8463;DHT22;4268;52.506;13.462;2023-04-25T14:52:58;12.30;68.40
8463;DHT22;4268;52.506;13.462;2023-04-25T14:55:28;12.40;68.60
8463;DHT22;4268;52.506;13.462;2023-04-25T14:57:54;12.30;68.80
8463;DHT22;4268;52.506;13.462;2023-04-25T15:00:21;12.40;69.60
8463;DHT22;4268;52.506;13.462;2023-04-25T15:02:48;12.10;70.30
8463;DHT22;4268;52.506;13.462;2023-04-25T15:05:13;11.90;71.30
8463;DHT22;4268;52.506;13.462;2023-04-25T15:07:39;11.70;71.60
8463;DHT22;4268;52.506;13.462;2023-04-25T15:10:08;11.60;72.10
8463;DHT22;4268;52.506;13.462;2023-04-25T15:12:39;11.50;73.20
8463;DHT22;4268;52.506;13.462;2023-04-25T15:15:06;11.40;73.30
8463;DHT22;4268;52.506;13.462;2023-04-25T15:17:40;11.30;73.80
8463;DHT22;4268;52.506;13.462;2023-04-25T15:20:07;11.20;74.50
8463;DHT22;4268;52.506;13.462;2023-04-25T15:22:35;11.20;74.40
8463;DHT22;4268;52.506;13.462;2023-04-25T15:25:01;11.10;74.90
8463;DHT22;4268;52.506;13.462;2023-04-25T15:27:26;11.20;74.80
8463;DHT22;4268;52.506;13.462;2023-04-25T15:29:52;11.30;74.60
8463;DHT22;4268;52.506;13.462;2023-04-25T15:32:18;11.30;73.50
8463;DHT22;4268;52.506;13.462;2023-04-25T15:34:44;11.40;73.70
8463;DHT22;4268;52.506;13.462;2023-04-25T15:37:09;11.50;73.50
8463;DHT22;4268;52.506;13.462;2023-04-25T15:39:35;11.60;72.40
8463;DHT22;4268;52.506;13.462;2023-04-25T15:42:00;11.60;71.50
8463;DHT22;4268;52.506;13.462;2023-04-25T15:44:27;11.60;70.40
8463;DHT22;4268;52.506;13.462;2023-04-25T15:46:53;11.60;70.30
8463;DHT22;4268;52.506;13.462;2023-04-25T15:49:18;11.60;70.50
8463;DHT22;4268;52.506;13.462;2023-04-25T15:51:46;11.60;70.70
8463;DHT22;4268;52.506;13.462;2023-04-25T15:54:12;11.50;71.00
8463;DHT22;4268;52.506;13.462;2023-04-25T15:56:37;11.40;71.30
8463;DHT22;4268;52.506;13.462;2023-04-25T15:59:03;11.30;71.40
8463;DHT22;4268;52.506;13.462;2023-04-25T16:01:29;11.30;72.40